Terminal Aerodrome Forecast
Issued by NWS Grand Forks, ND

Home | Current Version | Previous Version | Text Only | Print | Product List | Glossary Off
Versions: 1 2 3 4 5 6 7 8 9 10 11 12 13 14 15 16 17 18 19 20 21 22 23 24 25 26

000
FTUS43 KFGF 120535
TAFFAR
TAF
KFAR 120535Z 1206/1306 28004KT P6SM SKC
     FM120800 VRB03KT P6SM BKN035
     FM120900 21004KT P6SM BKN025
     FM121200 18006KT P6SM OVC035
     FM121300 19005KT P6SM OVC020
     FM121400 19005KT P6SM OVC015
     FM121900 19004KT P6SM OVC045
     FM130100 18005KT P6SM SCT200=

USA.gov is the U.S. government's official web portal to all federal, state and local government web resources and services.